sensor_id;sensor_type;location;lat;lon;timestamp;temperature;humidity
4312;DHT22;2169;49.086;9.284;2024-01-06T00:00:54;5.20;69.40
4312;DHT22;2169;49.086;9.284;2024-01-06T00:03:21;5.20;69.40
4312;DHT22;2169;49.086;9.284;2024-01-06T00:05:48;5.20;69.50
4312;DHT22;2169;49.086;9.284;2024-01-06T00:08:14;5.20;69.50
4312;DHT22;2169;49.086;9.284;2024-01-06T00:10:41;5.20;69.50
4312;DHT22;2169;49.086;9.284;2024-01-06T00:13:10;5.20;69.60
4312;DHT22;2169;49.086;9.284;2024-01-06T00:15:36;5.10;69.50
4312;DHT22;2169;49.086;9.284;2024-01-06T00:18:04;5.10;69.50
4312;DHT22;2169;49.086;9.284;2024-01-06T00:20:31;5.10;69.50
4312;DHT22;2169;49.086;9.284;2024-01-06T00:22:57;5.10;69.60
4312;DHT22;2169;49.086;9.284;2024-01-06T00:25:24;5.10;69.70
4312;DHT22;2169;49.086;9.284;2024-01-06T00:27:51;5.10;69.70
4312;DHT22;2169;49.086;9.284;2024-01-06T00:30:19;5.10;69.70
4312;DHT22;2169;49.086;9.284;2024-01-06T00:32:46;5.10;69.80
4312;DHT22;2169;49.086;9.284;2024-01-06T00:35:13;5.10;69.80
4312;DHT22;2169;49.086;9.284;2024-01-06T00:37:40;5.10;69.90
4312;DHT22;2169;49.086;9.284;2024-01-06T00:40:07;5.10;69.90
4312;DHT22;2169;49.086;9.284;2024-01-06T00:42:34;5.10;70.00
4312;DHT22;2169;49.086;9.284;2024-01-06T00:45:01;5.10;70.00
4312;DHT22;2169;49.086;9.284;2024-01-06T00:47:31;5.10;70.70
4312;DHT22;2169;49.086;9.284;2024-01-06T00:49:57;5.00;70.00
4312;DHT22;2169;49.086;9.284;2024-01-06T00:52:24;5.10;70.10
4312;DHT22;2169;49.086;9.284;2024-01-06T00:54:51;5.00;70.00
4312;DHT22;2169;49.086;9.284;2024-01-06T00:57:18;5.00;70.10
4312;DHT22;2169;49.086;9.284;2024-01-06T00:59:49;5.00;70.10
4312;DHT22;2169;49.086;9.284;2024-01-06T01:02:16;5.00;70.20
4312;DHT22;2169;49.086;9.284;2024-01-06T01:04:44;5.00;70.20
4312;DHT22;2169;49.086;9.284;2024-01-06T01:07:12;5.00;70.20
4312;DHT22;2169;49.086;9.284;2024-01-06T01:09:39;5.00;70.20
4312;DHT22;2169;49.086;9.284;2024-01-06T01:12:06;5.00;70.30
4312;DHT22;2169;49.086;9.284;2024-01-06T01:14:33;5.00;70.30
4312;DHT22;2169;49.086;9.284;2024-01-06T01:16:59;5.00;70.30
4312;DHT22;2169;49.086;9.284;2024-01-06T01:19:26;5.00;70.30
4312;DHT22;2169;49.086;9.284;2024-01-06T01:21:55;5.00;70.40
4312;DHT22;2169;49.086;9.284;2024-01-06T01:24:21;5.00;70.40
4312;DHT22;2169;49.086;9.284;2024-01-06T01:26:48;5.00;70.40
4312;DHT22;2169;49.086;9.284;2024-01-06T01:29:15;5.00;70.40
4312;DHT22;2169;49.086;9.284;2024-01-06T01:31:42;5.00;70.40
4312;DHT22;2169;49.086;9.284;2024-01-06T01:34:09;5.00;70.40
4312;DHT22;2169;49.086;9.284;2024-01-06T01:36:36;4.90;71.10
4312;DHT22;2169;49.086;9.284;2024-01-06T01:39:04;4.90;70.40
4312;DHT22;2169;49.086;9.284;2024-01-06T01:41:31;4.90;70.50
4312;DHT22;2169;49.086;9.284;2024-01-06T01:43:58;4.90;70.50
4312;DHT22;2169;49.086;9.284;2024-01-06T01:46:25;4.90;70.50
4312;DHT22;2169;49.086;9.284;2024-01-06T01:48:53;4.90;70.60
4312;DHT22;2169;49.086;9.284;2024-01-06T01:51:20;4.90;70.60
4312;DHT22;2169;49.086;9.284;2024-01-06T01:53:48;4.90;70.60
4312;DHT22;2169;49.086;9.284;2024-01-06T01:56:17;4.90;70.70
4312;DHT22;2169;49.086;9.284;2024-01-06T01:58:45;4.90;70.70
4312;DHT22;2169;49.086;9.284;2024-01-06T02:01:12;4.90;70.80
4312;DHT22;2169;49.086;9.284;2024-01-06T02:03:41;4.90;70.80
4312;DHT22;2169;49.086;9.284;2024-01-06T02:06:09;4.90;70.80
4312;DHT22;2169;49.086;9.284;2024-01-06T02:08:36;4.90;70.80
4312;DHT22;2169;49.086;9.284;2024-01-06T02:11:03;4.90;70.80
4312;DHT22;2169;49.086;9.284;2024-01-06T02:13:34;4.90;70.90
4312;DHT22;2169;49.086;9.284;2024-01-06T02:16:02;4.80;70.80
4312;DHT22;2169;49.086;9.284;2024-01-06T02:18:29;4.90;70.90
4312;DHT22;2169;49.086;9.284;2024-01-06T02:20:58;4.80;70.80
4312;DHT22;2169;49.086;9.284;2024-01-06T02:23:27;4.80;70.90
4312;DHT22;2169;49.086;9.284;2024-01-06T02:25:54;4.80;70.90
4312;DHT22;2169;49.086;9.284;2024-01-06T02:28:21;4.80;70.90
4312;DHT22;2169;49.086;9.284;2024-01-06T02:30:48;4.80;70.90
4312;DHT22;2169;49.086;9.284;2024-01-06T02:33:15;4.80;71.00
4312;DHT22;2169;49.086;9.284;2024-01-06T02:35:42;4.80;70.90
4312;DHT22;2169;49.086;9.284;2024-01-06T02:38:09;4.80;71.00
4312;DHT22;2169;49.086;9.284;2024-01-06T02:40:37;4.80;71.00
4312;DHT22;2169;49.086;9.284;2024-01-06T02:43:04;4.80;71.00
4312;DHT22;2169;49.086;9.284;2024-01-06T02:45:31;4.80;71.00
4312;DHT22;2169;49.086;9.284;2024-01-06T02:47:59;4.80;71.10
4312;DHT22;2169;49.086;9.284;2024-01-06T02:50:26;4.80;71.10
4312;DHT22;2169;49.086;9.284;2024-01-06T02:52:52;4.80;71.10
4312;DHT22;2169;49.086;9.284;2024-01-06T02:55:19;4.80;71.10
4312;DHT22;2169;49.086;9.284;2024-01-06T02:57:47;4.80;71.10
4312;DHT22;2169;49.086;9.284;2024-01-06T03:00:15;4.80;71.10
4312;DHT22;2169;49.086;9.284;2024-01-06T03:02:42;4.80;71.20
4312;DHT22;2169;49.086;9.284;2024-01-06T03:05:09;4.70;71.10
4312;DHT22;2169;49.086;9.284;2024-01-06T03:07:36;4.70;71.10
4312;DHT22;2169;49.086;9.284;2024-01-06T03:10:03;4.80;71.20
4312;DHT22;2169;49.086;9.284;2024-01-06T03:12:30;4.80;71.90
4312;DHT22;2169;49.086;9.284;2024-01-06T03:14:59;4.80;71.30
4312;DHT22;2169;49.086;9.284;2024-01-06T03:17:26;4.70;71.20
4312;DHT22;2169;49.086;9.284;2024-01-06T03:19:54;4.70;71.20
4312;DHT22;2169;49.086;9.284;2024-01-06T03:22:21;4.70;71.20
4312;DHT22;2169;49.086;9.284;2024-01-06T03:24:48;4.70;71.30
4312;DHT22;2169;49.086;9.284;2024-01-06T03:27:15;4.70;71.20
4312;DHT22;2169;49.086;9.284;2024-01-06T03:29:42;4.70;71.30
4312;DHT22;2169;49.086;9.284;2024-01-06T03:32:10;4.70;71.30
4312;DHT22;2169;49.086;9.284;2024-01-06T03:34:37;4.60;71.20
4312;DHT22;2169;49.086;9.284;2024-01-06T03:37:06;4.60;71.20
4312;DHT22;2169;49.086;9.284;2024-01-06T03:39:34;4.60;71.20
4312;DHT22;2169;49.086;9.284;2024-01-06T03:42:01;4.60;71.20
4312;DHT22;2169;49.086;9.284;2024-01-06T03:44:28;4.60;71.20
4312;DHT22;2169;49.086;9.284;2024-01-06T03:46:58;4.60;71.20
4312;DHT22;2169;49.086;9.284;2024-01-06T03:49:27;4.60;71.20
4312;DHT22;2169;49.086;9.284;2024-01-06T03:51:55;4.50;71.10
4312;DHT22;2169;49.086;9.284;2024-01-06T03:54:22;4.50;71.10
4312;DHT22;2169;49.086;9.284;2024-01-06T03:56:49;4.50;71.20
4312;DHT22;2169;49.086;9.284;2024-01-06T03:59:16;4.50;71.20
4312;DHT22;2169;49.086;9.284;2024-01-06T04:01:43;4.50;71.20
4312;DHT22;2169;49.086;9.284;2024-01-06T04:04:10;4.50;71.20
4312;DHT22;2169;49.086;9.284;2024-01-06T04:06:38;4.50;71.20
4312;DHT22;2169;49.086;9.284;2024-01-06T04:09:05;4.50;71.30
4312;DHT22;2169;49.086;9.284;2024-01-06T04:11:32;4.50;71.30
4312;DHT22;2169;49.086;9.284;2024-01-06T04:13:59;4.40;71.20
4312;DHT22;2169;49.086;9.284;2024-01-06T04:16:26;4.40;71.20
4312;DHT22;2169;49.086;9.284;2024-01-06T04:18:53;4.40;71.20
4312;DHT22;2169;49.086;9.284;2024-01-06T04:21:20;4.40;71.30
4312;DHT22;2169;49.086;9.284;2024-01-06T04:23:49;4.40;71.30
4312;DHT22;2169;49.086;9.284;2024-01-06T04:26:16;4.40;71.40
4312;DHT22;2169;49.086;9.284;2024-01-06T04:28:43;4.50;71.50
4312;DHT22;2169;49.086;9.284;2024-01-06T04:31:10;4.50;71.50
4312;DHT22;2169;49.086;9.284;2024-01-06T04:33:36;4.50;71.50
4312;DHT22;2169;49.086;9.284;2024-01-06T04:36:06;4.50;71.50
4312;DHT22;2169;49.086;9.284;2024-01-06T04:38:33;4.50;71.60
4312;DHT22;2169;49.086;9.284;2024-01-06T04:41:02;4.50;71.60
4312;DHT22;2169;49.086;9.284;2024-01-06T04:43:28;4.50;71.60
4312;DHT22;2169;49.086;9.284;2024-01-06T04:45:55;4.50;71.70
4312;DHT22;2169;49.086;9.284;2024-01-06T04:48:24;4.50;71.70
4312;DHT22;2169;49.086;9.284;2024-01-06T04:50:51;4.50;71.70
4312;DHT22;2169;49.086;9.284;2024-01-06T04:53:17;4.50;71.70
4312;DHT22;2169;49.086;9.284;2024-01-06T04:55:44;4.50;71.80
4312;DHT22;2169;49.086;9.284;2024-01-06T04:58:13;4.60;71.90
4312;DHT22;2169;49.086;9.284;2024-01-06T05:00:40;4.50;71.80
4312;DHT22;2169;49.086;9.284;2024-01-06T05:03:07;4.60;71.90
4312;DHT22;2169;49.086;9.284;2024-01-06T05:05:34;4.60;71.90
4312;DHT22;2169;49.086;9.284;2024-01-06T05:08:01;4.60;72.00
4312;DHT22;2169;49.086;9.284;2024-01-06T05:10:28;4.60;72.00
4312;DHT22;2169;49.086;9.284;2024-01-06T05:12:55;4.60;72.00
4312;DHT22;2169;49.086;9.284;2024-01-06T05:15:23;4.60;72.70
4312;DHT22;2169;49.086;9.284;2024-01-06T05:17:50;4.60;72.10
4312;DHT22;2169;49.086;9.284;2024-01-06T05:20:17;4.60;72.10
4312;DHT22;2169;49.086;9.284;2024-01-06T05:22:44;4.70;72.20
4312;DHT22;2169;49.086;9.284;2024-01-06T05:25:11;4.70;72.30
4312;DHT22;2169;49.086;9.284;2024-01-06T05:27:38;4.70;72.30
4312;DHT22;2169;49.086;9.284;2024-01-06T05:30:06;4.70;72.40
4312;DHT22;2169;49.086;9.284;2024-01-06T05:32:37;4.70;72.40
4312;DHT22;2169;49.086;9.284;2024-01-06T05:35:04;4.70;72.40
4312;DHT22;2169;49.086;9.284;2024-01-06T05:37:31;4.70;72.40
4312;DHT22;2169;49.086;9.284;2024-01-06T05:39:58;4.80;72.50
4312;DHT22;2169;49.086;9.284;2024-01-06T05:42:27;4.70;72.40
4312;DHT22;2169;49.086;9.284;2024-01-06T05:44:54;4.80;72.50
4312;DHT22;2169;49.086;9.284;2024-01-06T05:47:21;4.80;72.50
4312;DHT22;2169;49.086;9.284;2024-01-06T05:49:49;4.80;72.50
4312;DHT22;2169;49.086;9.284;2024-01-06T05:52:16;4.80;72.60
4312;DHT22;2169;49.086;9.284;2024-01-06T05:54:43;4.80;72.60
4312;DHT22;2169;49.086;9.284;2024-01-06T05:57:09;4.80;72.60
4312;DHT22;2169;49.086;9.284;2024-01-06T05:59:37;4.90;72.70
4312;DHT22;2169;49.086;9.284;2024-01-06T06:02:04;4.80;72.60
4312;DHT22;2169;49.086;9.284;2024-01-06T06:04:30;4.80;72.60
4312;DHT22;2169;49.086;9.284;2024-01-06T06:06:59;4.80;72.60
4312;DHT22;2169;49.086;9.284;2024-01-06T06:09:28;4.80;72.70
4312;DHT22;2169;49.086;9.284;2024-01-06T06:11:55;4.80;72.70
4312;DHT22;2169;49.086;9.284;2024-01-06T06:14:22;4.90;72.70
4312;DHT22;2169;49.086;9.284;2024-01-06T06:16:49;4.80;72.70
4312;DHT22;2169;49.086;9.284;2024-01-06T06:19:16;4.80;72.70
4312;DHT22;2169;49.086;9.284;2024-01-06T06:21:43;4.80;72.70
4312;DHT22;2169;49.086;9.284;2024-01-06T06:24:12;4.80;72.70
4312;DHT22;2169;49.086;9.284;2024-01-06T06:26:39;4.80;72.70
4312;DHT22;2169;49.086;9.284;2024-01-06T06:29:05;4.80;72.70
4312;DHT22;2169;49.086;9.284;2024-01-06T06:31:32;4.80;72.80
4312;DHT22;2169;49.086;9.284;2024-01-06T06:33:59;4.80;72.70
4312;DHT22;2169;49.086;9.284;2024-01-06T06:36:26;4.80;72.70
4312;DHT22;2169;49.086;9.284;2024-01-06T06:38:53;4.80;73.40
4312;DHT22;2169;49.086;9.284;2024-01-06T06:41:24;4.70;72.70
4312;DHT22;2169;49.086;9.284;2024-01-06T06:43:51;4.80;72.80
4312;DHT22;2169;49.086;9.284;2024-01-06T06:46:18;4.80;72.80
4312;DHT22;2169;49.086;9.284;2024-01-06T06:48:45;4.80;72.80
4312;DHT22;2169;49.086;9.284;2024-01-06T06:51:12;4.80;72.90
4312;DHT22;2169;49.086;9.284;2024-01-06T06:53:39;4.80;72.90
4312;DHT22;2169;49.086;9.284;2024-01-06T06:56:06;4.80;72.90
4312;DHT22;2169;49.086;9.284;2024-01-06T06:58:34;4.80;73.00
4312;DHT22;2169;49.086;9.284;2024-01-06T07:01:01;4.80;72.90
4312;DHT22;2169;49.086;9.284;2024-01-06T07:03:28;4.80;72.90
4312;DHT22;2169;49.086;9.284;2024-01-06T07:05:55;4.80;72.90
4312;DHT22;2169;49.086;9.284;2024-01-06T07:08:22;4.80;72.90
4312;DHT22;2169;49.086;9.284;2024-01-06T07:10:49;4.90;73.00
4312;DHT22;2169;49.086;9.284;2024-01-06T07:13:16;4.90;73.00
4312;DHT22;2169;49.086;9.284;2024-01-06T07:15:44;4.90;73.00
4312;DHT22;2169;49.086;9.284;2024-01-06T07:18:11;4.90;73.10
4312;DHT22;2169;49.086;9.284;2024-01-06T07:20:38;4.90;73.00
4312;DHT22;2169;49.086;9.284;2024-01-06T07:23:05;4.90;73.10
4312;DHT22;2169;49.086;9.284;2024-01-06T07:25:32;4.90;73.00
4312;DHT22;2169;49.086;9.284;2024-01-06T07:27:59;4.90;73.10
4312;DHT22;2169;49.086;9.284;2024-01-06T07:30:25;4.90;73.10
4312;DHT22;2169;49.086;9.284;2024-01-06T07:32:54;4.90;73.10
4312;DHT22;2169;49.086;9.284;2024-01-06T07:35:21;4.90;73.10
4312;DHT22;2169;49.086;9.284;2024-01-06T07:37:47;4.90;73.10
4312;DHT22;2169;49.086;9.284;2024-01-06T07:40:15;5.00;73.10
4312;DHT22;2169;49.086;9.284;2024-01-06T07:42:42;5.00;73.20
4312;DHT22;2169;49.086;9.284;2024-01-06T07:45:09;5.00;73.20
4312;DHT22;2169;49.086;9.284;2024-01-06T07:47:36;5.00;73.20
4312;DHT22;2169;49.086;9.284;2024-01-06T07:50:09;5.00;73.20
4312;DHT22;2169;49.086;9.284;2024-01-06T07:52:35;5.00;73.20
4312;DHT22;2169;49.086;9.284;2024-01-06T07:55:03;5.00;73.20
4312;DHT22;2169;49.086;9.284;2024-01-06T07:57:30;5.00;73.20
4312;DHT22;2169;49.086;9.284;2024-01-06T07:59:56;5.00;73.30
4312;DHT22;2169;49.086;9.284;2024-01-06T08:02:23;5.10;73.30
4312;DHT22;2169;49.086;9.284;2024-01-06T08:04:50;5.10;73.30
4312;DHT22;2169;49.086;9.284;2024-01-06T08:07:18;5.10;73.30
4312;DHT22;2169;49.086;9.284;2024-01-06T08:09:45;5.10;73.40
4312;DHT22;2169;49.086;9.284;2024-01-06T08:12:12;5.10;73.40
4312;DHT22;2169;49.086;9.284;2024-01-06T08:14:39;5.10;73.40
4312;DHT22;2169;49.086;9.284;2024-01-06T08:17:06;5.10;73.40
4312;DHT22;2169;49.086;9.284;2024-01-06T08:19:33;5.10;73.40
4312;DHT22;2169;49.086;9.284;2024-01-06T08:22:01;5.10;73.50
4312;DHT22;2169;49.086;9.284;2024-01-06T08:24:29;5.10;73.40
4312;DHT22;2169;49.086;9.284;2024-01-06T08:26:56;5.10;73.50
4312;DHT22;2169;49.086;9.284;2024-01-06T08:29:23;5.20;73.60
4312;DHT22;2169;49.086;9.284;2024-01-06T08:31:50;5.20;73.50
4312;DHT22;2169;49.086;9.284;2024-01-06T08:34:17;5.20;73.60
4312;DHT22;2169;49.086;9.284;2024-01-06T08:36:44;5.20;73.60
4312;DHT22;2169;49.086;9.284;2024-01-06T08:39:11;5.20;73.60
4312;DHT22;2169;49.086;9.284;2024-01-06T08:41:40;5.20;73.60
4312;DHT22;2169;49.086;9.284;2024-01-06T08:44:07;5.30;73.70
4312;DHT22;2169;49.086;9.284;2024-01-06T08:46:34;5.30;73.70
4312;DHT22;2169;49.086;9.284;2024-01-06T08:49:01;5.30;73.60
4312;DHT22;2169;49.086;9.284;2024-01-06T08:51:28;5.30;73.60
4312;DHT22;2169;49.086;9.284;2024-01-06T08:53:56;5.30;73.60
4312;DHT22;2169;49.086;9.284;2024-01-06T08:56:23;5.40;73.70
4312;DHT22;2169;49.086;9.284;2024-01-06T08:58:51;5.40;73.70
4312;DHT22;2169;49.086;9.284;2024-01-06T09:01:18;5.40;73.70
4312;DHT22;2169;49.086;9.284;2024-01-06T09:03:45;5.40;73.70
4312;DHT22;2169;49.086;9.284;2024-01-06T09:06:12;5.40;73.60
4312;DHT22;2169;49.086;9.284;2024-01-06T09:08:39;5.40;73.60
4312;DHT22;2169;49.086;9.284;2024-01-06T09:11:06;5.50;73.70
4312;DHT22;2169;49.086;9.284;2024-01-06T09:13:33;5.50;73.70
4312;DHT22;2169;49.086;9.284;2024-01-06T09:16:01;5.50;73.70
4312;DHT22;2169;49.086;9.284;2024-01-06T09:18:28;5.50;73.60
4312;DHT22;2169;49.086;9.284;2024-01-06T09:20:55;5.50;73.70
4312;DHT22;2169;49.086;9.284;2024-01-06T09:23:22;5.60;73.70
4312;DHT22;2169;49.086;9.284;2024-01-06T09:25:49;5.50;73.60
4312;DHT22;2169;49.086;9.284;2024-01-06T09:28:17;5.60;73.70
4312;DHT22;2169;49.086;9.284;2024-01-06T09:30:46;5.60;73.70
4312;DHT22;2169;49.086;9.284;2024-01-06T09:33:15;5.60;73.70
4312;DHT22;2169;49.086;9.284;2024-01-06T09:35:43;5.60;73.70
4312;DHT22;2169;49.086;9.284;2024-01-06T09:38:10;5.60;73.70
4312;DHT22;2169;49.086;9.284;2024-01-06T09:40:42;5.60;73.60
4312;DHT22;2169;49.086;9.284;2024-01-06T09:43:09;5.70;73.70
4312;DHT22;2169;49.086;9.284;2024-01-06T09:45:37;5.70;73.70
4312;DHT22;2169;49.086;9.284;2024-01-06T09:48:10;5.70;73.70
4312;DHT22;2169;49.086;9.284;2024-01-06T09:50:40;5.70;73.70
4312;DHT22;2169;49.086;9.284;2024-01-06T09:53:10;5.70;73.70
4312;DHT22;2169;49.086;9.284;2024-01-06T09:55:40;5.80;73.80
4312;DHT22;2169;49.086;9.284;2024-01-06T09:58:09;5.80;73.80
4312;DHT22;2169;49.086;9.284;2024-01-06T10:00:39;5.80;73.80
4312;DHT22;2169;49.086;9.284;2024-01-06T10:03:12;5.80;74.40
4312;DHT22;2169;49.086;9.284;2024-01-06T10:05:43;5.80;73.80
4312;DHT22;2169;49.086;9.284;2024-01-06T10:08:18;5.90;73.80
4312;DHT22;2169;49.086;9.284;2024-01-06T10:10:50;5.90;73.80
4312;DHT22;2169;49.086;9.284;2024-01-06T10:13:17;5.90;73.80
4312;DHT22;2169;49.086;9.284;2024-01-06T10:15:44;5.90;73.80
4312;DHT22;2169;49.086;9.284;2024-01-06T10:18:12;5.90;73.80
4312;DHT22;2169;49.086;9.284;2024-01-06T10:20:39;5.90;73.80
4312;DHT22;2169;49.086;9.284;2024-01-06T10:23:08;5.90;73.80
4312;DHT22;2169;49.086;9.284;2024-01-06T10:25:35;5.90;73.80
4312;DHT22;2169;49.086;9.284;2024-01-06T10:28:03;6.00;73.90
4312;DHT22;2169;49.086;9.284;2024-01-06T10:30:30;6.00;73.90
4312;DHT22;2169;49.086;9.284;2024-01-06T10:32:57;6.00;73.90
4312;DHT22;2169;49.086;9.284;2024-01-06T10:35:25;6.00;73.90
4312;DHT22;2169;49.086;9.284;2024-01-06T10:37:52;6.00;73.90
4312;DHT22;2169;49.086;9.284;2024-01-06T10:40:20;6.00;73.90
4312;DHT22;2169;49.086;9.284;2024-01-06T10:42:47;6.10;74.00
4312;DHT22;2169;49.086;9.284;2024-01-06T10:45:15;6.10;74.10
4312;DHT22;2169;49.086;9.284;2024-01-06T10:47:43;6.10;74.10
4312;DHT22;2169;49.086;9.284;2024-01-06T10:50:13;6.10;74.10
4312;DHT22;2169;49.086;9.284;2024-01-06T10:52:42;6.10;74.10
4312;DHT22;2169;49.086;9.284;2024-01-06T10:55:09;6.10;74.10
4312;DHT22;2169;49.086;9.284;2024-01-06T10:57:43;6.20;74.20
4312;DHT22;2169;49.086;9.284;2024-01-06T11:00:10;6.20;74.20
4312;DHT22;2169;49.086;9.284;2024-01-06T11:02:39;6.20;74.20
4312;DHT22;2169;49.086;9.284;2024-01-06T11:05:08;6.20;74.20
4312;DHT22;2169;49.086;9.284;2024-01-06T11:07:36;6.20;74.20
4312;DHT22;2169;49.086;9.284;2024-01-06T11:10:06;6.30;74.40
4312;DHT22;2169;49.086;9.284;2024-01-06T11:12:35;6.30;74.40
4312;DHT22;2169;49.086;9.284;2024-01-06T11:15:05;6.30;74.40
4312;DHT22;2169;49.086;9.284;2024-01-06T11:17:51;6.30;74.40
4312;DHT22;2169;49.086;9.284;2024-01-06T11:20:24;6.30;74.40
4312;DHT22;2169;49.086;9.284;2024-01-06T11:22:52;6.30;74.40
4312;DHT22;2169;49.086;9.284;2024-01-06T11:25:20;6.40;74.60
4312;DHT22;2169;49.086;9.284;2024-01-06T11:27:48;6.40;74.50
4312;DHT22;2169;49.086;9.284;2024-01-06T11:30:25;6.40;74.60
4312;DHT22;2169;49.086;9.284;2024-01-06T11:32:52;6.40;74.60
4312;DHT22;2169;49.086;9.284;2024-01-06T11:35:20;6.40;74.60
4312;DHT22;2169;49.086;9.284;2024-01-06T11:37:55;6.40;74.60
4312;DHT22;2169;49.086;9.284;2024-01-06T11:40:24;6.50;74.70
4312;DHT22;2169;49.086;9.284;2024-01-06T11:43:04;6.50;74.70
4312;DHT22;2169;49.086;9.284;2024-01-06T11:45:33;6.50;74.70
4312;DHT22;2169;49.086;9.284;2024-01-06T11:48:02;6.50;74.70
4312;DHT22;2169;49.086;9.284;2024-01-06T11:50:30;6.50;74.70
4312;DHT22;2169;49.086;9.284;2024-01-06T11:52:58;6.50;74.70
4312;DHT22;2169;49.086;9.284;2024-01-06T11:55:26;6.60;74.80
4312;DHT22;2169;49.086;9.284;2024-01-06T11:57:54;6.60;74.80
4312;DHT22;2169;49.086;9.284;2024-01-06T12:00:22;6.50;74.70
4312;DHT22;2169;49.086;9.284;2024-01-06T12:02:55;6.60;74.80
4312;DHT22;2169;49.086;9.284;2024-01-06T12:05:23;6.60;74.80
4312;DHT22;2169;49.086;9.284;2024-01-06T12:07:54;6.60;74.80
4312;DHT22;2169;49.086;9.284;2024-01-06T12:10:22;6.60;74.80
4312;DHT22;2169;49.086;9.284;2024-01-06T12:12:56;6.70;74.90
4312;DHT22;2169;49.086;9.284;2024-01-06T12:15:25;6.70;74.90
4312;DHT22;2169;49.086;9.284;2024-01-06T12:17:53;6.70;75.60
4312;DHT22;2169;49.086;9.284;2024-01-06T12:20:22;6.70;74.90
4312;DHT22;2169;49.086;9.284;2024-01-06T12:22:51;6.70;74.90
4312;DHT22;2169;49.086;9.284;2024-01-06T12:25:20;6.70;74.90
4312;DHT22;2169;49.086;9.284;2024-01-06T12:27:48;6.70;74.90
4312;DHT22;2169;49.086;9.284;2024-01-06T12:30:16;6.70;74.90
4312;DHT22;2169;49.086;9.284;2024-01-06T12:32:45;6.70;74.80
4312;DHT22;2169;49.086;9.284;2024-01-06T12:35:14;6.70;74.80
4312;DHT22;2169;49.086;9.284;2024-01-06T12:37:41;6.70;75.50
4312;DHT22;2169;49.086;9.284;2024-01-06T12:40:09;6.70;75.50
4312;DHT22;2169;49.086;9.284;2024-01-06T12:42:38;6.80;74.90
4312;DHT22;2169;49.086;9.284;2024-01-06T12:45:06;6.80;74.90
4312;DHT22;2169;49.086;9.284;2024-01-06T12:47:34;6.80;74.90
4312;DHT22;2169;49.086;9.284;2024-01-06T12:50:02;6.80;74.80
4312;DHT22;2169;49.086;9.284;2024-01-06T12:52:31;6.80;74.80
4312;DHT22;2169;49.086;9.284;2024-01-06T12:54:59;6.80;74.90
4312;DHT22;2169;49.086;9.284;2024-01-06T12:57:29;6.90;74.90
4312;DHT22;2169;49.086;9.284;2024-01-06T12:59:56;6.90;74.90
4312;DHT22;2169;49.086;9.284;2024-01-06T13:02:23;6.90;74.80
4312;DHT22;2169;49.086;9.284;2024-01-06T13:04:50;6.90;74.80
4312;DHT22;2169;49.086;9.284;2024-01-06T13:07:17;6.90;74.80
4312;DHT22;2169;49.086;9.284;2024-01-06T13:09:46;6.90;74.70
4312;DHT22;2169;49.086;9.284;2024-01-06T13:12:12;7.00;74.80
4312;DHT22;2169;49.086;9.284;2024-01-06T13:14:39;7.00;74.70
4312;DHT22;2169;49.086;9.284;2024-01-06T13:17:09;7.00;74.80
4312;DHT22;2169;49.086;9.284;2024-01-06T13:19:39;7.00;74.70
4312;DHT22;2169;49.086;9.284;2024-01-06T13:22:06;7.00;74.70
4312;DHT22;2169;49.086;9.284;2024-01-06T13:24:33;7.00;74.60
4312;DHT22;2169;49.086;9.284;2024-01-06T13:27:01;7.00;74.70
4312;DHT22;2169;49.086;9.284;2024-01-06T13:29:28;7.00;74.60
4312;DHT22;2169;49.086;9.284;2024-01-06T13:31:55;7.00;74.60
4312;DHT22;2169;49.086;9.284;2024-01-06T13:34:24;7.00;74.50
4312;DHT22;2169;49.086;9.284;2024-01-06T13:36:51;7.00;74.50
4312;DHT22;2169;49.086;9.284;2024-01-06T13:39:18;7.00;75.20
4312;DHT22;2169;49.086;9.284;2024-01-06T13:41:47;7.00;74.50
4312;DHT22;2169;49.086;9.284;2024-01-06T13:44:15;7.00;74.50
4312;DHT22;2169;49.086;9.284;2024-01-06T13:46:42;7.00;74.50
4312;DHT22;2169;49.086;9.284;2024-01-06T13:49:10;7.00;74.50
4312;DHT22;2169;49.086;9.284;2024-01-06T13:51:37;7.00;74.40
4312;DHT22;2169;49.086;9.284;2024-01-06T13:54:04;7.00;74.40
4312;DHT22;2169;49.086;9.284;2024-01-06T13:56:32;7.10;74.40
4312;DHT22;2169;49.086;9.284;2024-01-06T13:58:59;7.10;74.40
4312;DHT22;2169;49.086;9.284;2024-01-06T14:01:27;7.10;74.30
4312;DHT22;2169;49.086;9.284;2024-01-06T14:03:54;7.10;74.30
4312;DHT22;2169;49.086;9.284;2024-01-06T14:06:23;7.10;74.40
4312;DHT22;2169;49.086;9.284;2024-01-06T14:08:51;7.10;74.30
4312;DHT22;2169;49.086;9.284;2024-01-06T14:11:18;7.10;74.30
4312;DHT22;2169;49.086;9.284;2024-01-06T14:13:45;7.10;74.30
4312;DHT22;2169;49.086;9.284;2024-01-06T14:16:14;7.10;74.30
4312;DHT22;2169;49.086;9.284;2024-01-06T14:18:42;7.10;74.30
4312;DHT22;2169;49.086;9.284;2024-01-06T14:21:09;7.10;74.20
4312;DHT22;2169;49.086;9.284;2024-01-06T14:23:36;7.10;74.20
4312;DHT22;2169;49.086;9.284;2024-01-06T14:26:03;7.20;74.30
4312;DHT22;2169;49.086;9.284;2024-01-06T14:28:30;7.20;74.20
4312;DHT22;2169;49.086;9.284;2024-01-06T14:30:56;7.10;74.10
4312;DHT22;2169;49.086;9.284;2024-01-06T14:33:24;7.10;74.10
4312;DHT22;2169;49.086;9.284;2024-01-06T14:35:54;7.10;74.10
4312;DHT22;2169;49.086;9.284;2024-01-06T14:38:22;7.20;74.20
4312;DHT22;2169;49.086;9.284;2024-01-06T14:40:48;7.20;74.20
4312;DHT22;2169;49.086;9.284;2024-01-06T14:43:15;7.20;74.20
4312;DHT22;2169;49.086;9.284;2024-01-06T14:45:42;7.20;74.20
4312;DHT22;2169;49.086;9.284;2024-01-06T14:48:09;7.20;74.20
4312;DHT22;2169;49.086;9.284;2024-01-06T14:50:37;7.20;74.20
4312;DHT22;2169;49.086;9.284;2024-01-06T14:53:05;7.30;74.30
4312;DHT22;2169;49.086;9.284;2024-01-06T14:55:32;7.30;74.30
4312;DHT22;2169;49.086;9.284;2024-01-06T14:57:59;7.30;74.30
4312;DHT22;2169;49.086;9.284;2024-01-06T15:00:26;7.40;74.30
4312;DHT22;2169;49.086;9.284;2024-01-06T15:02:53;7.40;74.30
4312;DHT22;2169;49.086;9.284;2024-01-06T15:05:19;7.40;74.30
4312;DHT22;2169;49.086;9.284;2024-01-06T15:07:46;7.40;74.20
4312;DHT22;2169;49.086;9.284;2024-01-06T15:10:14;7.50;74.20
4312;DHT22;2169;49.086;9.284;2024-01-06T15:12:41;7.50;74.20
4312;DHT22;2169;49.086;9.284;2024-01-06T15:15:08;7.50;74.20
4312;DHT22;2169;49.086;9.284;2024-01-06T15:17:35;7.50;74.10
4312;DHT22;2169;49.086;9.284;2024-01-06T15:20:02;7.60;74.20
4312;DHT22;2169;49.086;9.284;2024-01-06T15:22:29;7.60;74.10
4312;DHT22;2169;49.086;9.284;2024-01-06T15:24:56;7.60;74.10
4312;DHT22;2169;49.086;9.284;2024-01-06T15:27:24;7.60;74.00
4312;DHT22;2169;49.086;9.284;2024-01-06T15:29:51;7.70;74.00
4312;DHT22;2169;49.086;9.284;2024-01-06T15:32:17;7.60;73.90
4312;DHT22;2169;49.086;9.284;2024-01-06T15:34:44;7.70;73.90
4312;DHT22;2169;49.086;9.284;2024-01-06T15:37:11;7.70;73.90
4312;DHT22;2169;49.086;9.284;2024-01-06T15:39:38;7.70;74.50
4312;DHT22;2169;49.086;9.284;2024-01-06T15:42:05;7.70;73.80
4312;DHT22;2169;49.086;9.284;2024-01-06T15:44:34;7.70;73.80
4312;DHT22;2169;49.086;9.284;2024-01-06T15:47:00;7.70;73.70
4312;DHT22;2169;49.086;9.284;2024-01-06T15:49:27;7.70;73.70
4312;DHT22;2169;49.086;9.284;2024-01-06T15:51:54;7.70;73.70
4312;DHT22;2169;49.086;9.284;2024-01-06T15:54:22;7.70;73.60
4312;DHT22;2169;49.086;9.284;2024-01-06T15:56:49;7.70;73.50
4312;DHT22;2169;49.086;9.284;2024-01-06T15:59:16;7.70;73.50
4312;DHT22;2169;49.086;9.284;2024-01-06T16:01:45;7.70;73.50
4312;DHT22;2169;49.086;9.284;2024-01-06T16:04:12;7.70;73.60
4312;DHT22;2169;49.086;9.284;2024-01-06T16:06:38;7.70;73.50
4312;DHT22;2169;49.086;9.284;2024-01-06T16:09:05;7.70;73.50
4312;DHT22;2169;49.086;9.284;2024-01-06T16:11:38;7.70;73.50
4312;DHT22;2169;49.086;9.284;2024-01-06T16:14:05;7.70;73.40
4312;DHT22;2169;49.086;9.284;2024-01-06T16:16:32;7.70;73.40
4312;DHT22;2169;49.086;9.284;2024-01-06T16:19:00;7.70;73.40